Time;durP1;ratioP1;P1;durP2;ratioP2;P2;SDS_P1;SDS_P2;PMS_P1;PMS_P2;Temp;Humidity;BMP_temperature;BMP_pressure;BME280_temperature;BME280_humidity;BME280_pressure;Samples;Min_cycle;Max_cycle;Signal;HPM_P1;HPM_P2
2022/01/01 00:00:16;;;;;;;7.18;4.13;;;;;;;26.16;36.22;97586.66;5013865;28;20030;-60
2022/01/01 00:02:41;;;;;;;10.07;4.28;;;;;;;26.15;36.35;97579.69;4996797;28;20033;-58
2022/01/01 00:05:07;;;;;;;5.95;3.58;;;;;;;26.15;36.19;97579.69;5011599;28;21075;-59
2022/01/01 00:07:34;;;;;;;9.70;4.47;;;;;;;26.15;36.32;97574.44;4992740;28;20041;-58
2022/01/01 00:09:59;;;;;;;9.68;4.20;;;;;;;26.14;36.19;97583.25;5011330;28;20028;-60
2022/01/01 00:12:25;;;;;;;7.65;4.15;;;;;;;26.15;36.29;97577.06;5014215;28;20041;-60
2022/01/01 00:14:50;;;;;;;7.28;4.68;;;;;;;26.15;36.20;97595.44;5005004;28;20080;-58
2022/01/01 00:17:16;;;;;;;9.95;6.30;;;;;;;26.15;35.76;97598.06;5004274;28;20025;-58
2022/01/01 00:19:41;;;;;;;10.13;5.50;;;;;;;26.14;35.83;97596.38;5006032;28;20030;-59
2022/01/01 00:22:07;;;;;;;6.82;5.03;;;;;;;26.12;35.77;97590.34;5004847;28;20029;-59
2022/01/01 00:24:34;;;;;;;13.60;5.05;;;;;;;26.10;35.77;97585.16;5002593;28;20025;-58
2022/01/01 00:26:59;;;;;;;11.82;4.90;;;;;;;26.04;35.68;97582.75;5010492;28;20030;-60
2022/01/01 00:29:24;;;;;;;11.48;5.22;;;;;;;26.08;35.84;97587.84;4985582;28;20037;-58
2022/01/01 00:31:50;;;;;;;16.33;5.93;;;;;;;26.06;35.70;97586.19;5016617;28;20476;-58
2022/01/01 00:34:15;;;;;;;13.27;5.32;;;;;;;26.05;35.82;97585.31;5006215;28;20021;-59
2022/01/01 00:36:41;;;;;;;9.07;4.82;;;;;;;26.05;35.90;97587.13;5020189;28;20103;-58
2022/01/01 00:39:06;;;;;;;12.52;4.97;;;;;;;26.03;36.04;97592.44;5002124;28;20036;-58
2022/01/01 00:41:32;;;;;;;8.55;4.88;;;;;;;26.05;36.08;97601.09;4998017;28;20092;-58
2022/01/01 00:43:57;;;;;;;13.65;4.97;;;;;;;26.05;35.97;97595.84;5008422;28;20083;-58
2022/01/01 00:46:23;;;;;;;11.88;4.95;;;;;;;26.06;36.02;97602.81;5010198;28;20025;-59
2022/01/01 00:48:48;;;;;;;10.25;4.95;;;;;;;26.07;36.14;97595.78;5002166;28;20561;-60
2022/01/01 00:51:14;;;;;;;7.15;4.40;;;;;;;26.02;36.05;97580.22;5006527;28;20492;-60
2022/01/01 00:53:39;;;;;;;8.65;4.78;;;;;;;26.07;35.89;97591.38;5000237;28;20095;-60
2022/01/01 00:56:04;;;;;;;7.90;4.50;;;;;;;26.06;35.90;97600.19;5002507;28;20970;-57
2022/01/01 00:58:30;;;;;;;8.40;4.97;;;;;;;26.07;35.96;97599.25;4999661;28;20447;-59
2022/01/01 01:00:55;;;;;;;9.27;4.90;;;;;;;26.08;36.08;97594.84;5000450;28;20060;-58
2022/01/01 01:03:20;;;;;;;6.72;4.78;;;;;;;26.07;35.93;97599.25;5001037;28;20040;-59
2022/01/01 01:05:46;;;;;;;11.05;4.70;;;;;;;26.07;36.10;97599.25;5002110;28;20045;-60
2022/01/01 01:08:13;;;;;;;7.65;5.22;;;;;;;26.08;36.01;97606.22;4995065;28;20048;-59
2022/01/01 01:10:39;;;;;;;7.55;4.57;;;;;;;26.08;35.81;97605.34;5014175;28;20057;-59
2022/01/01 01:13:04;;;;;;;7.22;4.60;;;;;;;26.08;36.01;97595.72;5001016;28;20424;-58
2022/01/01 01:15:32;;;;;;;8.68;4.78;;;;;;;26.08;35.91;97600.97;4990885;28;20033;-58
2022/01/01 01:17:57;;;;;;;9.85;4.43;;;;;;;26.08;36.04;97595.72;4985664;28;20029;-58
2022/01/01 01:20:23;;;;;;;10.52;4.50;;;;;;;26.09;36.08;97605.28;4999947;28;20104;-58
2022/01/01 01:22:48;;;;;;;7.00;4.78;;;;;;;26.08;36.03;97603.59;5003841;28;20029;-58
2022/01/01 01:25:13;;;;;;;9.68;4.55;;;;;;;26.09;36.00;97607.09;5002116;28;20045;-58
2022/01/01 01:27:39;;;;;;;7.85;4.60;;;;;;;26.08;35.90;97611.47;5006384;28;20030;-60
2022/01/01 01:30:15;;;;;;;8.95;4.70;;;;;;;26.08;36.06;97611.47;5006655;28;20048;-58
2022/01/01 01:32:40;;;;;;;5.90;4.60;;;;;;;26.09;35.90;97607.91;5006263;28;20858;-57
2022/01/01 01:35:06;;;;;;;8.23;4.88;;;;;;;26.03;35.84;97602.06;5007495;28;20030;-59
2022/01/01 01:37:32;;;;;;;8.48;4.10;;;;;;;26.09;35.90;97607.09;5004509;28;20047;-60
2022/01/01 01:39:57;;;;;;;7.85;4.55;;;;;;;26.09;35.97;97609.72;5003282;28;20091;-59
2022/01/01 01:42:25;;;;;;;9.93;4.63;;;;;;;26.08;35.95;97607.97;5003914;28;20500;-59
2022/01/01 01:44:53;;;;;;;7.47;4.43;;;;;;;26.07;35.92;97607.16;5003148;28;20033;-58
2022/01/01 01:47:27;;;;;;;8.85;4.60;;;;;;;26.08;35.91;97608.84;5007138;28;20762;-60
2022/01/01 01:49:52;;;;;;;7.80;4.32;;;;;;;26.08;35.86;97607.97;5013505;28;20108;-59
2022/01/01 01:52:19;;;;;;;9.85;4.60;;;;;;;26.07;35.84;97606.28;5022184;28;20036;-58
2022/01/01 01:54:45;;;;;;;6.80;4.45;;;;;;;26.07;35.83;97615.03;5006965;28;20188;-59
2022/01/01 01:57:10;;;;;;;7.15;4.75;;;;;;;26.07;35.96;97615.03;4990563;28;20524;-59
2022/01/01 01:59:35;;;;;;;6.65;4.35;;;;;;;26.08;35.88;97605.34;5004389;28;20028;-59
2022/01/01 02:02:01;;;;;;;5.60;4.07;;;;;;;26.07;35.89;97612.41;5004521;28;20064;-59
2022/01/01 02:04:26;;;;;;;6.90;4.72;;;;;;;26.06;35.92;97613.31;5004776;28;20564;-58
2022/01/01 02:06:52;;;;;;;6.43;4.43;;;;;;;26.06;35.97;97608.06;5005196;28;20040;-60
2022/01/01 02:09:17;;;;;;;7.65;4.35;;;;;;;26.06;36.00;97613.31;5007737;28;20038;-59
2022/01/01 02:11:43;;;;;;;6.47;4.35;;;;;;;26.05;35.66;97613.38;4996863;28;20025;-58
2022/01/01 02:14:14;;;;;;;6.75;4.10;;;;;;;26.06;35.81;97613.31;5005965;28;20025;-58
2022/01/01 02:19:27;;;;;;;6.15;4.03;;;;;;;26.05;35.94;97622.09;5004407;28;20084;-57
2022/01/01 02:21:53;;;;;;;6.88;4.70;;;;;;;26.05;35.92;97622.09;5005475;28;20017;-59
2022/01/01 02:24:19;;;;;;;8.27;4.63;;;;;;;26.06;35.85;97621.19;5004413;28;20048;-59
2022/01/01 02:26:44;;;;;;;5.30;4.13;;;;;;;26.04;35.92;97619.53;4995278;28;20025;-59
2022/01/01 02:29:10;;;;;;;9.02;4.40;;;;;;;26.05;35.79;97614.22;5006945;28;20025;-59
2022/01/01 02:31:36;;;;;;;6.20;4.43;;;;;;;26.04;35.90;97619.53;5005601;28;20026;-58
2022/01/01 02:34:05;;;;;;;5.57;4.05;;;;;;;26.04;36.02;97619.53;5001571;28;20033;-59
2022/01/01 02:36:32;;;;;;;6.38;4.50;;;;;;;26.05;35.82;97635.22;4983094;28;20045;-60
2022/01/01 02:38:58;;;;;;;7.18;4.40;;;;;;;26.04;35.86;97625.66;5007925;28;20144;-57
2022/01/01 02:41:23;;;;;;;5.97;3.80;;;;;;;26.04;35.92;97630.91;5000507;28;20034;-59
2022/01/01 02:43:49;;;;;;;5.95;3.95;;;;;;;26.04;35.84;97632.66;5001803;28;20683;-58
2022/01/01 02:46:14;;;;;;;6.80;4.47;;;;;;;26.03;35.93;97629.19;5004672;28;20029;-59
2022/01/01 02:48:40;;;;;;;5.35;4.25;;;;;;;26.03;35.83;97626.56;5006264;28;20032;-58
2022/01/01 02:51:05;;;;;;;6.05;3.97;;;;;;;26.04;35.83;97628.28;5002845;28;20025;-59
2022/01/01 02:53:30;;;;;;;5.90;3.90;;;;;;;26.04;35.82;97635.28;5003611;28;20025;-60
2022/01/01 02:55:56;;;;;;;7.22;4.18;;;;;;;26.04;35.85;97632.66;5002665;28;20029;-59
2022/01/01 02:58:21;;;;;;;5.30;4.03;;;;;;;26.04;35.90;97641.41;5004270;28;20018;-59
2022/01/01 03:00:46;;;;;;;7.43;4.10;;;;;;;26.04;35.91;97636.16;5003433;28;20041;-58
2022/01/01 03:03:12;;;;;;;6.57;4.18;;;;;;;26.04;35.89;97635.28;5004712;28;20029;-60
2022/01/01 03:05:37;;;;;;;6.95;3.85;;;;;;;26.03;35.91;97621.31;5003884;28;20510;-58
2022/01/01 03:08:04;;;;;;;5.30;3.80;;;;;;;26.04;35.77;97622.16;5007319;28;20037;-59
2022/01/01 03:10:29;;;;;;;5.03;3.92;;;;;;;26.03;35.92;97623.94;5002234;28;20238;-59
2022/01/01 03:12:55;;;;;;;11.07;7.63;;;;;;;26.02;35.83;97622.25;4999162;28;20638;-59
2022/01/01 03:15:20;;;;;;;9.50;6.57;;;;;;;26.03;35.58;97617.81;5004591;28;20044;-60
2022/01/01 03:17:45;;;;;;;9.65;5.50;;;;;;;26.01;35.63;97620.50;5006714;28;20083;-59
2022/01/01 03:20:11;;;;;;;7.65;4.43;;;;;;;26.00;35.76;97618.81;5002246;28;20025;-60
2022/01/01 03:22:36;;;;;;;8.52;4.40;;;;;;;26.00;35.71;97624.06;5004672;28;20025;-59
2022/01/01 03:25:02;;;;;;;6.18;4.15;;;;;;;26.00;35.74;97621.44;5008376;28;20500;-59
2022/01/01 03:27:27;;;;;;;7.00;4.28;;;;;;;26.00;35.76;97616.19;5007017;28;20040;-59
2022/01/01 03:29:53;;;;;;;7.80;4.13;;;;;;;26.00;35.92;97618.81;5005248;28;20025;-59
2022/01/01 03:32:18;;;;;;;5.60;3.97;;;;;;;26.00;35.89;97618.81;5003398;28;20074;-58
2022/01/01 03:34:44;;;;;;;5.63;4.10;;;;;;;26.00;35.79;97616.19;4997951;28;21097;-60
2022/01/01 03:37:09;;;;;;;6.57;4.38;;;;;;;25.99;35.97;97609.22;4999412;28;20029;-59
2022/01/01 03:39:34;;;;;;;5.85;3.95;;;;;;;25.98;35.84;97612.78;5000124;28;20487;-59
2022/01/01 03:42:00;;;;;;;5.35;3.95;;;;;;;26.00;35.91;97608.31;5003552;28;20480;-58
2022/01/01 03:44:25;;;;;;;5.55;3.88;;;;;;;25.99;35.76;97617.09;5002746;28;20538;-59
2022/01/01 03:46:53;;;;;;;4.75;3.63;;;;;;;25.98;35.99;97610.16;5007886;28;20021;-59
2022/01/01 03:49:19;;;;;;;6.03;3.45;;;;;;;25.97;35.73;97605.78;5006234;28;20079;-58
2022/01/01 03:51:45;;;;;;;6.25;4.00;;;;;;;25.95;35.95;97599.75;5006896;28;20041;-58
2022/01/01 03:54:12;;;;;;;4.72;3.55;;;;;;;25.98;35.73;97610.16;5001816;28;20163;-59
2022/01/01 03:56:38;;;;;;;4.70;3.65;;;;;;;25.99;35.83;97603.97;4990846;28;20026;-59
2022/01/01 03:59:03;;;;;;;4.60;3.33;;;;;;;25.99;35.87;97596.09;5009357;28;20040;-59
2022/01/01 04:01:29;;;;;;;5.10;3.65;;;;;;;25.97;35.74;97597.91;5009844;28;20041;-58
2022/01/01 04:03:54;;;;;;;4.78;3.80;;;;;;;25.96;35.81;97602.34;5009359;28;20460;-59
2022/01/01 04:06:19;;;;;;;5.80;3.47;;;;;;;25.98;35.87;97610.16;5006976;28;20029;-59
2022/01/01 04:08:45;;;;;;;5.53;3.58;;;;;;;25.96;35.84;97606.72;5008950;28;20021;-59
2022/01/01 04:11:10;;;;;;;5.57;3.50;;;;;;;25.97;35.81;97608.41;5006109;28;20032;-60
2022/01/01 04:13:36;;;;;;;4.35;3.42;;;;;;;25.96;35.89;97602.34;5008008;28;20037;-58
2022/01/01 04:16:01;;;;;;;5.90;3.65;;;;;;;25.97;35.88;97603.16;5006585;28;20025;-60
2022/01/01 04:18:37;;;;;;;5.20;3.17;;;;;;;25.95;35.82;97607.66;5007377;28;20029;-58
2022/01/01 04:21:04;;;;;;;4.93;3.53;;;;;;;25.96;35.88;97604.97;5005319;28;20036;-58
2022/01/01 04:23:29;;;;;;;4.75;3.40;;;;;;;25.96;35.71;97601.47;5008832;28;20113;-58
2022/01/01 04:25:55;;;;;;;4.25;3.10;;;;;;;25.96;35.90;97609.34;5010503;28;20842;-59
2022/01/01 04:28:20;;;;;;;5.07;3.40;;;;;;;25.97;35.83;97608.41;5006650;28;20056;-59
2022/01/01 04:30:46;;;;;;;5.97;3.55;;;;;;;25.97;35.77;97608.41;5008288;28;20033;-58
2022/01/01 04:33:11;;;;;;;5.10;3.53;;;;;;;25.96;35.54;97606.72;5006710;28;20823;-59
2022/01/01 04:35:37;;;;;;;4.60;3.25;;;;;;;25.96;35.84;97596.22;5000702;28;20030;-59
2022/01/01 04:38:02;;;;;;;4.90;3.28;;;;;;;25.96;35.84;97601.47;5001264;28;20048;-58
2022/01/01 04:40:27;;;;;;;3.72;3.00;;;;;;;25.95;35.88;97605.00;5001843;28;20045;-58
2022/01/01 04:42:53;;;;;;;4.40;3.47;;;;;;;25.95;35.84;97602.38;5009604;28;20025;-59
2022/01/01 04:45:18;;;;;;;4.65;3.33;;;;;;;25.96;35.94;97591.81;5011527;28;20029;-62
2022/01/01 04:47:44;;;;;;;4.32;3.20;;;;;;;25.95;35.92;97592.75;5006978;28;20034;-59
2022/01/01 04:50:09;;;;;;;4.10;3.30;;;;;;;25.95;35.97;97594.50;5009007;28;20022;-59
2022/01/01 04:52:34;;;;;;;3.60;3.05;;;;;;;25.95;35.83;97591.88;5006867;28;20030;-58
2022/01/01 04:55:00;;;;;;;4.95;3.53;;;;;;;25.96;35.90;97588.34;5005152;28;20064;-59
2022/01/01 04:57:30;;;;;;;3.65;3.13;;;;;;;25.95;35.84;97584.00;5007851;28;20037;-58
2022/01/01 04:59:55;;;;;;;4.43;3.10;;;;;;;25.96;35.84;97577.84;5007940;28;20271;-60
2022/01/01 05:02:21;;;;;;;4.22;3.10;;;;;;;25.95;35.92;97584.00;5007761;28;20068;-60
2022/01/01 05:04:46;;;;;;;5.15;3.10;;;;;;;25.94;35.90;97580.50;5008081;28;20440;-58
2022/01/01 05:07:12;;;;;;;3.17;2.88;;;;;;;25.95;35.91;97573.50;5007509;28;20056;-60
2022/01/01 05:09:37;;;;;;;3.53;2.80;;;;;;;25.94;35.95;97582.31;5009740;28;20033;-58
2022/01/01 05:12:03;;;;;;;3.80;2.75;;;;;;;25.95;35.94;97584.00;4999533;28;20447;-59
2022/01/01 05:14:30;;;;;;;3.75;2.72;;;;;;;25.95;35.90;97581.38;5001074;28;20124;-59
2022/01/01 05:16:56;;;;;;;3.10;2.60;;;;;;;25.94;35.81;97577.06;5004121;28;20144;-59
2022/01/01 05:19:22;;;;;;;3.30;2.78;;;;;;;25.94;35.78;97572.63;5005724;28;20045;-58
2022/01/01 05:21:47;;;;;;;3.92;3.03;;;;;;;25.95;35.76;97573.50;5005990;28;20030;-59
2022/01/01 05:24:18;;;;;;;3.75;3.03;;;;;;;25.94;35.82;97583.13;5007622;28;20036;-59
2022/01/01 05:26:43;;;;;;;3.45;2.72;;;;;;;25.94;35.92;97579.69;5007137;28;20029;-60
2022/01/01 05:29:08;;;;;;;5.68;2.95;;;;;;;25.94;35.93;97587.56;5005942;28;20028;-59
2022/01/01 05:31:34;;;;;;;3.72;2.90;;;;;;;25.93;35.85;97594.56;5004937;28;20025;-59
2022/01/01 05:33:59;;;;;;;4.10;2.65;;;;;;;25.93;35.84;97591.13;5005622;28;20030;-59
2022/01/01 05:36:25;;;;;;;5.38;2.92;;;;;;;25.93;35.96;97589.31;5002174;28;20033;-59
2022/01/01 05:38:50;;;;;;;6.68;2.80;;;;;;;25.94;35.77;97592.81;5007783;28;20045;-58
2022/01/01 05:41:15;;;;;;;4.05;3.00;;;;;;;25.93;35.99;97591.13;5002577;28;20072;-60
2022/01/01 05:43:41;;;;;;;4.05;2.78;;;;;;;25.93;35.90;97601.63;5006526;28;20018;-60
2022/01/01 05:46:06;;;;;;;4.20;2.65;;;;;;;25.89;36.03;97589.53;5008099;28;20029;-63
2022/01/01 05:48:32;;;;;;;3.40;2.72;;;;;;;25.93;35.76;97591.94;5003499;28;20040;-60
2022/01/01 05:50:58;;;;;;;3.00;2.53;;;;;;;25.93;36.03;97596.38;5004599;28;20029;-58
2022/01/01 05:53:23;;;;;;;2.88;2.55;;;;;;;25.93;35.90;97599.81;5004155;28;20042;-61
2022/01/01 05:55:49;;;;;;;4.53;2.75;;;;;;;25.94;36.04;97605.94;5007885;28;20048;-59
2022/01/01 05:58:14;;;;;;;3.38;2.67;;;;;;;25.93;35.97;97604.25;5001354;28;20030;-59
2022/01/01 06:00:40;;;;;;;3.05;2.55;;;;;;;25.92;35.88;97616.50;5002950;28;20055;-60
2022/01/01 06:03:05;;;;;;;3.92;2.47;;;;;;;25.92;35.98;97620.88;4989031;28;20022;-59
2022/01/01 06:05:31;;;;;;;3.70;2.95;;;;;;;25.93;35.92;97627.88;5007923;28;20037;-58
2022/01/01 06:07:57;;;;;;;2.50;2.20;;;;;;;25.92;35.85;97632.25;5005319;28;20599;-59
2022/01/01 06:10:23;;;;;;;2.83;2.22;;;;;;;25.91;35.90;97635.81;5004253;28;20033;-59
2022/01/01 06:12:48;;;;;;;3.03;2.40;;;;;;;25.92;35.86;97642.75;5019912;28;20645;-59
2022/01/01 06:15:14;;;;;;;2.97;2.33;;;;;;;25.92;35.98;97642.75;5005402;28;20030;-59
2022/01/01 06:17:39;;;;;;;3.60;2.35;;;;;;;25.92;36.00;97649.78;5004136;28;20025;-60
2022/01/01 06:20:05;;;;;;;3.40;2.53;;;;;;;25.92;35.86;97652.41;5003689;28;20755;-60
2022/01/01 06:22:30;;;;;;;3.08;2.22;;;;;;;25.91;35.95;97662.06;5004745;28;20025;-61
2022/01/01 06:24:56;;;;;;;2.92;2.40;;;;;;;25.92;36.01;97657.66;5006869;28;20033;-60
2022/01/01 06:27:21;;;;;;;2.80;2.30;;;;;;;25.93;35.85;97654.13;5004612;28;20033;-60
2022/01/01 06:29:46;;;;;;;3.25;2.53;;;;;;;25.93;35.98;97656.75;5003641;28;20041;-59
2022/01/01 06:32:12;;;;;;;5.10;3.47;;;;;;;25.92;35.99;97657.66;5010713;28;20072;-58
2022/01/01 06:34:38;;;;;;;8.85;3.97;;;;;;;25.91;35.95;97661.19;5003931;28;20072;-59
2022/01/01 06:37:03;;;;;;;5.30;3.00;;;;;;;25.91;36.00;97658.56;5003625;28;20030;-59
2022/01/01 06:39:28;;;;;;;5.32;2.90;;;;;;;25.90;35.92;97662.13;5001360;28;20087;-59
2022/01/01 06:41:54;;;;;;;3.72;2.90;;;;;;;25.90;35.92;97664.75;5000954;28;20022;-60
2022/01/01 06:44:19;;;;;;;3.97;2.95;;;;;;;25.91;35.95;97661.19;5004001;28;20025;-59
2022/01/01 06:46:45;;;;;;;3.35;2.33;;;;;;;25.91;35.97;97655.94;5005816;28;20424;-59
2022/01/01 06:49:10;;;;;;;2.90;2.60;;;;;;;25.91;35.95;97655.94;5003204;28;20033;-58
2022/01/01 06:51:36;;;;;;;3.50;2.40;;;;;;;25.91;36.01;97658.56;5001062;28;20060;-60
2022/01/01 06:54:03;;;;;;;3.03;2.20;;;;;;;25.91;36.03;97655.94;5003712;28;20068;-58
2022/01/01 06:56:28;;;;;;;4.57;2.30;;;;;;;25.92;35.92;97657.66;5004939;28;20120;-60
2022/01/01 06:58:53;;;;;;;3.08;2.40;;;;;;;25.92;35.85;97657.66;5003289;28;20029;-59
2022/01/01 07:01:19;;;;;;;2.85;2.30;;;;;;;25.92;35.80;97641.91;4987506;28;20028;-60
2022/01/01 07:03:44;;;;;;;5.03;2.40;;;;;;;25.93;35.93;97644.47;5001146;28;20030;-59
2022/01/01 07:06:10;;;;;;;3.75;2.38;;;;;;;25.93;35.79;97641.00;4986996;28;20029;-58
2022/01/01 07:08:35;;;;;;;3.78;2.22;;;;;;;25.93;35.93;97639.22;5006291;28;20030;-58
2022/01/01 07:11:00;;;;;;;3.25;2.20;;;;;;;25.93;35.95;97635.75;5004531;28;20503;-59
2022/01/01 07:13:26;;;;;;;4.13;2.28;;;;;;;25.94;35.77;97640.91;4997296;28;20036;-59
2022/01/01 07:15:52;;;;;;;2.63;2.10;;;;;;;25.93;35.86;97633.97;5003113;28;20037;-59
2022/01/01 07:18:17;;;;;;;4.75;2.40;;;;;;;25.94;35.94;97640.91;5018001;28;20029;-58
2022/01/01 07:20:42;;;;;;;2.33;1.90;;;;;;;25.95;36.00;97639.16;5004078;28;20833;-58
2022/01/01 07:23:08;;;;;;;2.90;2.10;;;;;;;25.95;35.76;97639.16;4999579;28;20084;-58
2022/01/01 07:25:33;;;;;;;5.38;3.30;;;;;;;25.95;36.07;97641.78;5002660;28;20025;-59
2022/01/01 07:27:59;;;;;;;3.85;2.60;;;;;;;25.94;35.96;97637.44;5001229;28;20040;-59
2022/01/01 07:30:24;;;;;;;2.47;2.17;;;;;;;25.94;35.93;97634.81;4997444;28;20034;-58
2022/01/01 07:32:50;;;;;;;5.60;2.30;;;;;;;25.94;36.06;97640.06;5007324;28;20747;-60
2022/01/01 07:35:16;;;;;;;5.57;2.33;;;;;;;25.95;35.91;97641.78;5007476;28;20099;-59
2022/01/01 07:37:42;;;;;;;4.00;2.50;;;;;;;25.96;35.99;97643.50;4990226;28;20106;-59
2022/01/01 07:40:09;;;;;;;2.58;2.15;;;;;;;25.96;35.95;97648.75;5006420;28;20487;-58
2022/01/01 07:42:34;;;;;;;2.50;1.80;;;;;;;25.96;35.88;97651.38;5004372;28;20563;-59
2022/01/01 07:45:00;;;;;;;3.67;2.08;;;;;;;25.97;35.88;97655.69;5008589;28;20040;-59
2022/01/01 07:47:26;;;;;;;2.25;1.98;;;;;;;25.98;35.99;97653.94;5008983;28;20040;-59
2022/01/01 07:49:51;;;;;;;6.18;2.10;;;;;;;25.97;35.95;97660.94;5006479;28;20041;-63
2022/01/01 07:52:17;;;;;;;2.58;2.00;;;;;;;25.97;36.03;97650.44;5002623;28;20209;-58
2022/01/01 07:54:42;;;;;;;2.65;1.80;;;;;;;25.98;35.71;97646.91;5003630;28;20080;-60
2022/01/01 07:57:08;;;;;;;4.10;2.05;;;;;;;25.98;35.96;97639.03;4979681;28;20084;-59
2022/01/01 07:59:33;;;;;;;3.58;2.30;;;;;;;25.98;35.97;97630.28;5002524;28;20079;-60
2022/01/01 08:01:58;;;;;;;8.43;3.30;;;;;;;25.98;35.94;97628.53;4979385;28;20506;-59
2022/01/01 08:04:24;;;;;;;12.40;3.72;;;;;;;25.98;36.05;97631.16;5001908;28;20138;-59
2022/01/01 08:06:49;;;;;;;9.73;3.50;;;;;;;25.97;36.03;97626.81;4990088;28;20040;-58
2022/01/01 08:09:16;;;;;;;7.97;3.28;;;;;;;26.00;36.01;97629.31;5009918;28;20666;-59
2022/01/01 08:11:42;;;;;;;7.15;3.42;;;;;;;26.02;35.89;97627.50;5003004;28;20053;-59
2022/01/01 08:14:07;;;;;;;10.13;3.78;;;;;;;26.03;36.04;97623.94;5002835;28;20559;-59
2022/01/01 08:16:33;;;;;;;8.02;3.25;;;;;;;26.04;36.04;97620.41;5002627;28;20021;-59
2022/01/01 08:18:58;;;;;;;8.82;3.10;;;;;;;26.05;35.94;97622.09;4995270;28;20046;-59
2022/01/01 08:21:23;;;;;;;8.25;3.10;;;;;;;26.06;35.95;97618.56;4999142;28;20029;-59
2022/01/01 08:23:49;;;;;;;11.18;3.67;;;;;;;26.08;35.80;97629.84;4997875;28;20044;-60
2022/01/01 08:26:14;;;;;;;9.18;4.53;;;;;;;26.08;35.30;97631.63;5005651;28;20619;-58
2022/01/01 08:28:41;;;;;;;7.88;5.18;;;;;;;26.08;34.74;97631.63;5008521;28;20033;-59
2022/01/01 08:31:07;;;;;;;8.48;4.30;;;;;;;26.05;34.24;97637.84;4984339;28;20098;-59
2022/01/01 08:33:32;;;;;;;7.97;4.40;;;;;;;26.09;34.14;97655.19;4999705;28;20029;-58
2022/01/01 08:35:58;;;;;;;8.98;4.22;;;;;;;26.09;34.00;97649.13;5002143;28;21952;-58
2022/01/01 08:38:23;;;;;;;11.68;4.22;;;;;;;26.10;33.70;97662.16;5003540;28;20475;-60
2022/01/01 08:40:48;;;;;;;8.90;3.78;;;;;;;26.11;33.63;97657.78;5000719;28;20114;-59
2022/01/01 08:43:14;;;;;;;14.60;4.15;;;;;;;26.10;33.50;97662.16;5005987;28;20033;-59
2022/01/01 08:45:39;;;;;;;7.50;3.70;;;;;;;26.12;33.31;97658.63;5008168;28;20037;-59
2022/01/01 08:48:05;;;;;;;6.18;3.75;;;;;;;26.08;33.16;97658.75;5001996;28;20741;-58
2022/01/01 08:50:31;;;;;;;6.68;3.47;;;;;;;26.07;32.98;97657.06;4986147;28;20476;-60
2022/01/01 08:52:57;;;;;;;5.28;3.78;;;;;;;26.13;32.83;97655.09;4983620;28;20049;-60
2022/01/01 08:55:23;;;;;;;7.15;3.50;;;;;;;26.08;32.92;97645.63;4999379;28;20022;-60
2022/01/01 08:57:49;;;;;;;6.63;3.55;;;;;;;26.13;32.77;97655.09;4983375;28;20036;-60
2022/01/01 09:00:15;;;;;;;6.30;3.40;;;;;;;26.13;32.48;97661.22;4999112;28;20404;-58
2022/01/01 09:02:40;;;;;;;6.35;3.70;;;;;;;26.15;32.44;97661.13;4998751;28;20025;-59
2022/01/01 09:05:06;;;;;;;8.55;3.72;;;;;;;26.15;32.25;97663.75;4997391;28;20078;-59
2022/01/01 09:07:31;;;;;;;6.72;3.25;;;;;;;26.15;32.22;97666.38;5008297;28;20034;-59
2022/01/01 09:09:57;;;;;;;7.43;4.00;;;;;;;26.15;32.19;97663.75;5003545;28;20091;-58
2022/01/01 09:12:23;;;;;;;8.68;3.50;;;;;;;26.16;32.09;97668.09;4998317;28;20045;-59
2022/01/01 09:14:49;;;;;;;4.63;3.13;;;;;;;26.15;31.96;97664.63;5001844;28;20140;-60
2022/01/01 09:17:14;;;;;;;5.50;3.20;;;;;;;26.16;31.88;97660.22;4998930;28;20032;-59
2022/01/01 09:19:40;;;;;;;4.22;2.92;;;;;;;26.18;31.83;97664.50;4996804;28;20096;-59
2022/01/01 09:22:05;;;;;;;5.05;3.38;;;;;;;26.18;31.75;97668.88;5000982;28;20075;-60
2022/01/01 09:24:31;;;;;;;5.00;3.15;;;;;;;26.19;31.76;97665.31;5002749;28;20034;-60
2022/01/01 09:26:56;;;;;;;5.40;3.03;;;;;;;26.21;31.64;97668.78;4998543;28;20175;-59
2022/01/01 09:29:22;;;;;;;6.10;3.10;;;;;;;26.22;31.74;97675.72;5003133;28;20483;-61
2022/01/01 09:31:47;;;;;;;6.38;3.22;;;;;;;26.22;31.47;97675.72;4999368;28;20284;-60
2022/01/01 09:34:13;;;;;;;5.90;2.97;;;;;;;26.23;31.26;97677.44;5000073;28;20041;-61
2022/01/01 09:36:38;;;;;;;4.47;3.05;;;;;;;26.22;30.99;97680.97;4999114;28;20042;-60
2022/01/01 09:39:04;;;;;;;4.50;2.90;;;;;;;26.21;31.12;97682.75;4998527;28;20403;-59
2022/01/01 09:41:30;;;;;;;4.80;2.90;;;;;;;26.21;31.31;97684.53;5014664;28;20021;-59
2022/01/01 09:43:56;;;;;;;6.63;3.10;;;;;;;26.21;31.63;97685.38;4998512;28;20198;-59
2022/01/01 09:46:21;;;;;;;5.47;3.15;;;;;;;26.21;31.88;97685.38;4998531;28;20025;-60
2022/01/01 09:48:47;;;;;;;8.02;3.30;;;;;;;26.21;32.24;97679.28;4998353;28;20044;-60
2022/01/01 09:51:14;;;;;;;5.00;3.50;;;;;;;26.17;29.88;97682.94;4996059;28;20723;-59
2022/01/01 09:53:39;;;;;;;6.15;4.00;;;;;;;26.04;27.62;97678.19;4996225;28;20030;-58
2022/01/01 09:56:05;;;;;;;4.75;3.75;;;;;;;25.87;26.83;97675.38;4986901;28;20025;-59
2022/01/01 09:58:34;;;;;;;8.75;3.92;;;;;;;25.73;28.04;97679.38;4996859;28;20396;-60
2022/01/01 10:01:00;;;;;;;6.90;3.90;;;;;;;25.62;28.73;97679.81;4998636;28;20137;-59
2022/01/01 10:03:40;;;;;;;4.80;3.47;;;;;;;25.57;29.36;97669.50;5001980;28;20040;-58
2022/01/01 10:06:14;;;;;;;10.55;3.80;;;;;;;25.54;29.99;97671.31;5001510;28;20408;-60
2022/01/01 10:08:40;;;;;;;5.85;3.38;;;;;;;25.54;30.46;97671.31;4985077;28;20029;-59
2022/01/01 10:11:06;;;;;;;5.97;3.50;;;;;;;25.55;30.73;97671.28;4997471;28;20162;-59
2022/01/01 10:13:33;;;;;;;6.38;3.40;;;;;;;25.57;30.96;97674.75;5000244;28;20492;-59
2022/01/01 10:16:01;;;;;;;4.00;2.88;;;;;;;25.59;31.27;97666.78;4999929;28;20120;-60
2022/01/01 10:18:28;;;;;;;7.75;3.20;;;;;;;25.61;31.27;97670.22;4995482;28;20030;-58
2022/01/01 10:21:13;;;;;;;11.48;3.53;;;;;;;25.64;31.60;97670.13;5001551;28;20025;-58
2022/01/01 10:23:41;;;;;;;8.23;3.35;;;;;;;25.67;31.55;97669.13;5003178;28;20033;-60
2022/01/01 10:29:26;;;;;;;5.88;3.40;;;;;;;25.71;32.27;97665.47;4994946;28;20036;-61
2022/01/01 10:32:08;;;;;;;11.57;3.88;;;;;;;25.73;32.60;97657.56;4984533;28;20041;-58
2022/01/01 10:34:38;;;;;;;8.07;3.40;;;;;;;25.72;32.67;97651.44;4998801;28;20025;-59
2022/01/01 10:37:05;;;;;;;9.77;3.42;;;;;;;25.77;32.94;97649.47;5004027;28;20059;-57
2022/01/01 10:39:31;;;;;;;8.32;3.70;;;;;;;25.83;32.99;97649.22;4996480;28;20025;-58
2022/01/01 10:41:58;;;;;;;7.15;3.60;;;;;;;25.92;33.08;97647.16;4993545;28;20025;-59
2022/01/01 10:44:30;;;;;;;7.03;3.38;;;;;;;26.04;32.94;97645.78;4997564;28;20555;-59
2022/01/01 10:46:57;;;;;;;10.73;3.67;;;;;;;26.14;32.81;97644.53;4996771;28;20061;-59
2022/01/01 10:52:21;;;;;;;5.40;3.10;;;;;;;26.45;32.62;97640.66;4996219;28;20049;-60
2022/01/01 10:54:59;;;;;;;8.30;3.70;;;;;;;26.59;32.36;97636.56;4997602;28;20669;-60
2022/01/01 10:57:33;;;;;;;8.98;3.75;;;;;;;26.74;32.23;97629.78;4999600;28;20623;-59
2022/01/01 11:00:08;;;;;;;8.18;3.58;;;;;;;26.87;32.17;97625.69;4995801;28;20030;-60
2022/01/01 11:02:34;;;;;;;6.90;3.60;;;;;;;26.99;31.99;97620.81;4997368;28;20032;-58
2022/01/01 11:05:00;;;;;;;9.07;3.22;;;;;;;27.10;31.97;97613.31;4987313;28;20045;-60
2022/01/01 11:07:26;;;;;;;8.48;3.20;;;;;;;27.20;31.87;97612.91;5000140;28;20026;-61
2022/01/01 11:09:52;;;;;;;6.25;3.22;;;;;;;27.31;31.66;97609.75;4988286;28;20406;-60
2022/01/01 11:12:20;;;;;;;5.88;3.10;;;;;;;27.41;31.52;97615.47;4999575;28;20083;-60
2022/01/01 11:14:45;;;;;;;7.40;3.10;;;;;;;27.51;31.49;97608.84;4988301;28;20576;-60
2022/01/01 11:17:11;;;;;;;7.80;3.60;;;;;;;27.59;31.39;97600.56;5014893;28;20032;-60
2022/01/01 11:19:36;;;;;;;6.07;3.13;;;;;;;27.68;31.34;97604.56;4997931;28;20495;-60
2022/01/01 11:22:02;;;;;;;7.68;3.17;;;;;;;27.74;31.25;97591.09;4994699;28;20021;-58
2022/01/01 11:24:27;;;;;;;5.13;3.00;;;;;;;27.77;31.66;97583.06;4998223;28;20030;-58
2022/01/01 11:26:53;;;;;;;6.75;3.25;;;;;;;27.87;31.34;97583.44;4999704;28;20716;-60
2022/01/01 11:29:18;;;;;;;8.35;2.90;;;;;;;27.92;31.14;97577.03;5010761;28;20044;-59
2022/01/01 11:31:43;;;;;;;7.38;3.38;;;;;;;27.97;30.93;97573.31;4987083;28;20038;-60
2022/01/01 11:34:09;;;;;;;5.22;3.22;;;;;;;28.01;31.19;97572.22;4994794;28;20057;-59